KBNA/BNA METAR and TAF weather

Enter ICAO airport designator
Station Type Date Time Source
KBNA METAR 2020/01/19 22:53 UTC NOAA

KBNA 192253Z 32009KT 10SM FEW040 M01/M11 A3038 RMK AO2 SLP292 T10061111 $


Station Type Date Time Source
KBNA Decoded METAR 2020/01/19 22:53 UTC NOAA

NASHVILLE INTERNATIONAL AIRPORT, TN, United States (KBNA) 36-07N 086-41W 210M
Jan 19, 2020 - 05:53 PM EST / 2020.01.19 2253 UTC
Wind: from the NW (320 degrees) at 10 MPH (9 KT):0
Visibility: 10 mile(s):0
Sky conditions: mostly clear
Temperature: 30.9 F (-0.6 C)
Windchill: 23 F (-5 C):1
Dew Point: 12.0 F (-11.1 C)
Relative Humidity: 44%
Pressure (altimeter): 30.38 in. Hg (1028 hPa)
ob: KBNA 192253Z 32009KT 10SM FEW040 M01/M11 A3038 RMK AO2 SLP292 T10061111
cycle: 23

Station Type Date Time Source
KBNA TAF 2020/01/19 18:24 UTC NOAA

TAF KBNA 191721Z 1918/2018 34012G20KT P6SM SKC
FM200500 35008KT P6SM SKC

Example: see airport list